Time;durP1;ratioP1;P1;durP2;ratioP2;P2;SDS_P1;SDS_P2;PMS_P1;PMS_P2;Temp;Humidity;BMP_temperature;BMP_pressure;BME280_temperature;BME280_humidity;BME280_pressure;Samples;Min_cycle;Max_cycle;Signal;HPM_P1;HPM_P2
2023/10/04 00:02:09;;;;;;;9.30;5.40;;;;;;;18.11;65.74;97444.24;107672;1237;97772;-77
2023/10/04 00:04:38;;;;;;;11.20;5.90;;;;;;;17.96;66.08;97440.21;107704;1235;96557;-76
2023/10/04 00:07:05;;;;;;;7.50;5.00;;;;;;;17.82;66.74;97451.03;107758;1235;96746;-76
2023/10/04 00:09:31;;;;;;;11.20;5.50;;;;;;;17.70;67.27;97446.09;107800;1235;96804;-76
2023/10/04 00:11:59;;;;;;;6.70;4.50;;;;;;;17.60;67.89;97449.94;107664;1239;97102;-80
2023/10/04 00:14:26;;;;;;;5.40;4.00;;;;;;;17.50;68.50;97452.66;107460;1241;97447;-80
2023/10/04 00:16:55;;;;;;;6.70;4.30;;;;;;;17.43;69.27;97458.95;107474;1250;97190;-76
2023/10/04 00:19:21;;;;;;;9.20;5.10;;;;;;;17.33;69.45;97477.20;107767;1239;102403;-76
2023/10/04 00:21:48;;;;;;;7.40;4.40;;;;;;;17.19;69.78;97478.93;107818;1248;97790;-76
2023/10/04 00:24:14;;;;;;;7.40;4.00;;;;;;;17.07;70.36;97482.41;107747;1238;97819;-76
2023/10/04 00:26:43;;;;;;;8.60;4.20;;;;;;;16.98;70.80;97491.89;107815;1239;96580;-76
2023/10/04 00:29:10;;;;;;;7.40;3.70;;;;;;;16.90;71.07;97500.87;107776;1239;102058;-75
2023/10/04 00:31:36;;;;;;;5.90;3.30;;;;;;;16.84;70.97;97494.40;107596;1235;96592;-81
2023/10/04 00:34:03;;;;;;;5.40;3.20;;;;;;;16.76;71.26;97475.15;107716;1238;97782;-81
2023/10/04 00:36:30;;;;;;;7.60;3.20;;;;;;;16.72;71.50;97481.39;107790;1237;97470;-81
2023/10/04 00:38:56;;;;;;;6.70;3.20;;;;;;;16.65;71.60;97483.36;107833;1250;96632;-82
2023/10/04 00:41:23;;;;;;;3.90;2.70;;;;;;;16.61;71.84;97486.31;107761;1238;100034;-82
2023/10/04 00:43:50;;;;;;;4.50;2.70;;;;;;;16.53;72.26;97484.05;107746;1238;97484;-81
2023/10/04 00:46:22;;;;;;;6.00;3.30;;;;;;;16.49;72.56;97484.70;107683;1239;97280;-76
2023/10/04 00:48:49;;;;;;;4.20;2.50;;;;;;;16.46;72.45;97481.91;107641;1243;97053;-76
2023/10/04 00:51:22;;;;;;;4.20;2.90;;;;;;;16.44;72.89;97492.12;107776;1238;101023;-74
2023/10/04 00:53:49;;;;;;;3.70;2.20;;;;;;;16.35;72.80;97494.48;107825;1239;101170;-76
2023/10/04 00:56:16;;;;;;;4.10;2.60;;;;;;;16.23;73.02;97494.80;107768;1238;96580;-76
2023/10/04 00:58:43;;;;;;;4.10;2.60;;;;;;;16.18;73.17;97498.55;107823;1248;96548;-76
2023/10/04 01:01:10;;;;;;;6.70;3.00;;;;;;;16.16;73.40;97501.90;107795;1239;96633;-75
2023/10/04 01:03:37;;;;;;;4.00;2.30;;;;;;;16.15;73.47;97527.73;107759;1250;96564;-76
2023/10/04 01:06:04;;;;;;;5.10;2.80;;;;;;;16.14;73.80;97547.98;107792;1235;96783;-76
2023/10/04 01:08:30;;;;;;;7.30;3.20;;;;;;;16.13;73.96;97561.48;107751;1238;97466;-75
2023/10/04 01:10:57;;;;;;;5.20;2.80;;;;;;;16.09;74.06;97565.78;107767;1249;97815;-75
2023/10/04 01:13:26;;;;;;;4.60;2.50;;;;;;;16.08;73.90;97570.23;107515;1241;97794;-75
2023/10/04 01:15:55;;;;;;;4.80;3.00;;;;;;;16.03;73.92;97572.70;107780;1238;96500;-75
2023/10/04 01:18:23;;;;;;;3.90;2.40;;;;;;;15.97;73.83;97577.42;107823;1247;99685;-75
2023/10/04 01:20:51;;;;;;;5.30;2.60;;;;;;;15.93;73.84;97574.85;107783;1241;96573;-75
2023/10/04 01:23:18;;;;;;;5.10;2.30;;;;;;;15.91;73.72;97573.93;107785;1238;97511;-75
2023/10/04 01:25:46;;;;;;;5.00;2.50;;;;;;;15.84;73.35;97577.58;107723;1235;97791;-75
2023/10/04 01:28:17;;;;;;;5.10;2.60;;;;;;;15.79;73.14;97578.10;107735;1240;101534;-76
2023/10/04 01:30:45;;;;;;;4.30;2.60;;;;;;;15.74;73.25;97585.31;107765;1243;100020;-80
2023/10/04 01:33:15;;;;;;;5.70;3.20;;;;;;;15.68;73.18;97594.12;107796;1239;96665;-79
2023/10/04 01:35:45;;;;;;;5.30;2.50;;;;;;;15.60;73.59;97600.67;107799;1235;97080;-80
2023/10/04 01:38:13;;;;;;;4.00;2.60;;;;;;;15.53;73.90;97608.73;107812;1239;100630;-79
2023/10/04 01:40:40;;;;;;;7.00;2.40;;;;;;;15.54;74.02;97619.98;107799;1239;100936;-79
2023/10/04 01:43:14;;;;;;;4.70;2.60;;;;;;;15.56;74.12;97626.71;107762;1239;101158;-79
2023/10/04 01:45:48;;;;;;;4.60;2.80;;;;;;;15.53;74.00;97636.81;107675;1235;97054;-76
2023/10/04 01:48:15;;;;;;;4.90;2.40;;;;;;;15.49;73.93;97646.33;107753;1249;96983;-75
2023/10/04 01:50:48;;;;;;;5.80;2.60;;;;;;;15.45;73.92;97653.61;107770;1241;96774;-81
2023/10/04 01:53:16;;;;;;;4.10;2.20;;;;;;;15.44;73.88;97661.48;107754;1237;101311;-81
2023/10/04 01:55:42;;;;;;;4.00;2.80;;;;;;;15.44;73.61;97660.45;107731;1249;96551;-82
2023/10/04 01:58:08;;;;;;;5.90;3.00;;;;;;;15.44;73.44;97668.44;107749;1241;97106;-81
2023/10/04 02:00:35;;;;;;;4.30;2.60;;;;;;;15.42;73.57;97670.56;107744;1242;97802;-81
2023/10/04 02:03:02;;;;;;;7.20;3.10;;;;;;;15.39;73.59;97679.77;107891;1237;97392;-79
2023/10/04 02:05:31;;;;;;;5.10;2.90;;;;;;;15.36;73.55;97682.26;107347;1242;98898;-80
2023/10/04 02:07:59;;;;;;;5.40;2.70;;;;;;;15.36;73.71;97686.89;107610;1238;97461;-80
2023/10/04 02:10:26;;;;;;;4.50;2.50;;;;;;;15.33;73.84;97686.98;107784;1237;96626;-78
2023/10/04 02:12:55;;;;;;;4.70;2.60;;;;;;;15.31;73.57;97690.96;107353;1237;98296;-80
2023/10/04 02:15:22;;;;;;;7.70;2.60;;;;;;;15.29;73.65;97694.88;107417;1242;101440;-81
2023/10/04 02:17:49;;;;;;;4.50;2.30;;;;;;;15.25;73.27;97697.75;107720;1238;97446;-82
2023/10/04 02:20:19;;;;;;;3.90;2.10;;;;;;;15.21;73.14;97702.02;107737;1241;97492;-80
2023/10/04 02:22:45;;;;;;;3.60;1.90;;;;;;;15.20;72.79;97703.88;107814;1239;97100;-81
2023/10/04 02:25:13;;;;;;;4.40;2.20;;;;;;;15.14;72.68;97707.16;107843;1248;97849;-81
2023/10/04 02:27:41;;;;;;;4.50;2.70;;;;;;;15.08;72.51;97714.13;107459;1242;96637;-75
2023/10/04 02:30:15;;;;;;;3.20;2.20;;;;;;;15.05;72.57;97716.23;107866;1239;97227;-76
2023/10/04 02:32:43;;;;;;;3.70;1.90;;;;;;;15.04;72.57;97720.21;107792;1235;97817;-75
2023/10/04 02:35:20;;;;;;;2.60;1.80;;;;;;;15.02;72.27;97724.30;107424;1250;96716;-75
2023/10/04 02:37:47;;;;;;;4.10;2.60;;;;;;;14.98;72.24;97730.23;107749;1239;102375;-76
2023/10/04 02:40:16;;;;;;;7.30;2.10;;;;;;;14.97;72.20;97731.61;107356;1242;97823;-76
2023/10/04 02:42:45;;;;;;;4.10;2.30;;;;;;;14.91;72.25;97726.46;107800;1239;98870;-76
2023/10/04 02:45:18;;;;;;;3.80;2.20;;;;;;;14.88;72.30;97724.03;107698;1239;96624;-80
2023/10/04 02:47:49;;;;;;;5.40;2.00;;;;;;;14.87;72.32;97731.98;107756;1239;97669;-76
2023/10/04 02:50:17;;;;;;;4.00;2.20;;;;;;;14.85;72.15;97740.59;107732;1247;102256;-77
2023/10/04 02:52:45;;;;;;;4.90;2.50;;;;;;;14.83;72.02;97760.59;107463;1243;101270;-77
2023/10/04 02:55:17;;;;;;;4.00;2.30;;;;;;;14.78;72.04;97770.84;107717;1248;100125;-76
2023/10/04 02:57:45;;;;;;;;;;;;;;;14.73;72.01;97771.70;107803;1238;97477;-73
2023/10/04 03:00:16;;;;;;;3.20;1.60;;;;;;;14.66;71.80;97768.27;107837;1238;98415;-78
2023/10/04 03:02:49;;;;;;;4.10;2.30;;;;;;;14.62;71.63;97765.27;107818;1239;101092;-80
2023/10/04 03:05:18;;;;;;;3.10;1.90;;;;;;;14.57;71.57;97772.33;107426;1242;100480;-73
2023/10/04 03:07:50;;;;;;;3.70;2.20;;;;;;;14.57;71.58;97776.05;107334;1249;99813;-73
2023/10/04 03:10:23;;;;;;;6.00;2.50;;;;;;;14.56;71.48;97776.64;107848;1249;97682;-74
2023/10/04 03:12:52;;;;;;;5.10;1.70;;;;;;;14.54;71.52;97780.05;107804;1238;96558;-74
2023/10/04 03:15:22;;;;;;;3.40;2.00;;;;;;;14.54;71.57;97776.23;107712;1239;101241;-78
2023/10/04 03:17:50;;;;;;;3.20;2.00;;;;;;;14.52;71.56;97778.94;107682;1241;101386;-79
2023/10/04 03:20:20;;;;;;;2.70;2.00;;;;;;;14.51;71.48;97783.38;107342;1250;98890;-79
2023/10/04 03:22:48;;;;;;;3.00;2.00;;;;;;;14.49;71.33;97793.16;107791;1247;97831;-79
2023/10/04 03:25:15;;;;;;;3.40;2.00;;;;;;;14.46;71.39;97793.89;107745;1238;97087;-79
2023/10/04 03:27:46;;;;;;;3.20;1.90;;;;;;;14.45;71.38;97795.95;107632;1238;96569;-80
2023/10/04 03:30:14;;;;;;;3.00;2.20;;;;;;;14.43;71.31;97796.39;107811;1239;101424;-74
2023/10/04 03:32:52;;;;;;;4.80;2.10;;;;;;;14.41;71.27;97799.67;107797;1238;98923;-74
2023/10/04 03:35:26;;;;;;;3.20;1.80;;;;;;;14.41;71.25;97801.38;107734;1238;96603;-74
2023/10/04 03:37:58;;;;;;;3.70;2.00;;;;;;;14.36;71.53;97806.01;107687;1239;96987;-73
2023/10/04 03:40:34;;;;;;;3.90;2.30;;;;;;;14.35;71.39;97810.91;107582;1238;101064;-74
2023/10/04 03:43:06;;;;;;;5.20;2.00;;;;;;;14.32;71.19;97803.63;107385;1242;101149;-73
2023/10/04 03:45:34;;;;;;;2.70;1.60;;;;;;;14.30;71.26;97804.94;107792;1249;98880;-73
2023/10/04 03:48:01;;;;;;;3.80;2.30;;;;;;;14.30;71.35;97816.13;107747;1239;96988;-73
2023/10/04 03:50:28;;;;;;;3.70;2.10;;;;;;;14.28;71.19;97817.02;107752;1238;97807;-75
2023/10/04 03:52:57;;;;;;;3.40;2.10;;;;;;;14.25;71.02;97821.61;107784;1239;97788;-74
2023/10/04 03:55:26;;;;;;;3.50;2.20;;;;;;;14.23;71.05;97821.90;107421;1242;99079;-73
2023/10/04 03:57:55;;;;;;;5.70;2.00;;;;;;;14.22;70.97;97824.25;107400;1240;99918;-73
2023/10/04 04:00:23;;;;;;;3.60;2.10;;;;;;;14.21;71.09;97831.45;107847;1249;97791;-79
2023/10/04 04:02:50;;;;;;;4.80;2.40;;;;;;;14.17;71.12;97835.43;107734;1239;97709;-73
2023/10/04 04:05:21;;;;;;;4.00;2.60;;;;;;;14.10;70.95;97837.05;107824;1236;96563;-80
2023/10/04 04:07:52;;;;;;;5.20;2.50;;;;;;;14.09;71.19;97839.08;107758;1241;101347;-80
2023/10/04 04:10:20;;;;;;;5.00;2.40;;;;;;;14.08;71.27;97841.66;107753;1240;100015;-80
2023/10/04 04:12:47;;;;;;;7.50;2.20;;;;;;;14.08;71.10;97845.30;107657;1239;96689;-79
2023/10/04 04:15:15;;;;;;;3.20;2.00;;;;;;;14.05;70.99;97840.14;107705;1239;97607;-75
2023/10/04 04:17:42;;;;;;;4.30;2.00;;;;;;;14.03;71.11;97841.78;107570;1247;96803;-75
2023/10/04 04:20:14;;;;;;;4.70;2.20;;;;;;;14.05;71.26;97849.16;107784;1239;100219;-74
2023/10/04 04:22:43;;;;;;;7.30;2.50;;;;;;;14.08;71.10;97852.62;107641;1238;100029;-78
2023/10/04 04:25:15;;;;;;;3.50;2.20;;;;;;;14.09;71.04;97855.32;107574;1240;96873;-78
2023/10/04 04:27:44;;;;;;;3.70;2.30;;;;;;;14.05;70.86;97859.60;107307;1242;97702;-77
2023/10/04 04:30:16;;;;;;;4.80;2.00;;;;;;;14.01;70.86;97867.08;107855;1248;102345;-74
2023/10/04 04:32:48;;;;;;;3.40;2.00;;;;;;;13.99;70.76;97867.60;107405;1239;101456;-74
2023/10/04 04:35:22;;;;;;;4.80;2.70;;;;;;;13.99;70.78;97868.14;107754;1250;100084;-74
2023/10/04 04:37:54;;;;;;;3.40;2.10;;;;;;;13.97;70.89;97868.41;107787;1238;96572;-74
2023/10/04 04:40:30;;;;;;;4.10;1.90;;;;;;;13.93;71.01;97869.19;107680;1248;97791;-76
2023/10/04 04:43:18;;;;;;;4.30;2.50;;;;;;;13.88;70.82;97870.54;107173;1245;100925;-75
2023/10/04 04:45:51;;;;;;;4.80;2.00;;;;;;;13.86;70.87;97878.73;107802;1238;100224;-77
2023/10/04 04:48:23;;;;;;;4.90;2.10;;;;;;;13.85;70.91;97883.33;107792;1239;99953;-79
2023/10/04 04:50:57;;;;;;;8.20;2.10;;;;;;;13.81;70.73;97881.85;107782;1237;96585;-78
2023/10/04 04:53:27;;;;;;;6.00;2.20;;;;;;;13.78;70.81;97885.28;107729;1240;97773;-79
2023/10/04 04:55:55;;;;;;;3.10;2.10;;;;;;;13.78;70.69;97887.83;107793;1248;102260;-79
2023/10/04 04:58:23;;;;;;;2.80;1.90;;;;;;;13.74;70.72;97887.11;107802;1248;101131;-78
2023/10/04 05:00:55;;;;;;;4.30;2.10;;;;;;;13.64;70.63;97885.85;107629;1250;100542;-80
2023/10/04 05:03:24;;;;;;;4.50;2.40;;;;;;;13.53;70.85;97889.48;107348;1250;96611;-79
2023/10/04 05:05:50;;;;;;;3.90;2.30;;;;;;;13.47;71.22;97893.39;107479;1248;97511;-80
2023/10/04 05:08:17;;;;;;;2.40;1.90;;;;;;;13.42;71.30;97899.55;107761;1237;97484;-80
2023/10/04 05:10:45;;;;;;;3.50;2.00;;;;;;;13.36;71.50;97901.09;107826;1241;97499;-80
2023/10/04 05:13:13;;;;;;;3.70;1.90;;;;;;;13.31;71.73;97910.23;107331;1243;98056;-80
2023/10/04 05:15:43;;;;;;;4.10;1.80;;;;;;;13.29;71.84;97922.84;107760;1239;97840;-81
2023/10/04 05:18:11;;;;;;;5.70;2.20;;;;;;;13.29;71.88;97931.73;107710;1247;98271;-80
2023/10/04 05:20:38;;;;;;;4.60;2.00;;;;;;;13.26;71.94;97936.60;107829;1237;102380;-74
2023/10/04 05:23:05;;;;;;;6.80;2.30;;;;;;;13.26;72.08;97941.77;107390;1242;100065;-74
2023/10/04 05:25:32;;;;;;;4.50;2.40;;;;;;;13.25;71.95;97948.49;107750;1239;97222;-74
2023/10/04 05:28:03;;;;;;;2.70;1.80;;;;;;;13.25;72.02;97953.20;107786;1239;97691;-75
2023/10/04 05:30:30;;;;;;;4.50;2.20;;;;;;;13.28;71.89;97960.77;107783;1241;97501;-78
2023/10/04 05:32:57;;;;;;;7.70;2.60;;;;;;;13.31;72.06;97960.63;107198;1243;97134;-80
2023/10/04 05:35:24;;;;;;;6.80;2.30;;;;;;;13.37;72.15;97959.15;107609;1237;97456;-80
2023/10/04 05:37:51;;;;;;;9.40;2.50;;;;;;;13.45;72.00;97956.19;107659;1239;97794;-79
2023/10/04 05:40:24;;;;;;;4.60;1.90;;;;;;;13.50;71.75;97962.18;107675;1243;96647;-80
2023/10/04 05:42:53;;;;;;;4.00;1.80;;;;;;;13.53;71.54;97970.62;107730;1248;97053;-79
2023/10/04 05:45:21;;;;;;;10.80;2.90;;;;;;;13.55;71.44;97981.71;107789;1248;102393;-79
2023/10/04 05:47:50;;;;;;;5.80;2.30;;;;;;;13.56;71.45;97990.39;107462;1244;101101;-78
2023/10/04 05:50:21;;;;;;;4.10;2.30;;;;;;;13.58;70.99;97999.60;107834;1239;98431;-77
2023/10/04 05:52:48;;;;;;;4.60;2.30;;;;;;;13.57;70.79;98007.91;110919;1240;94551;-81
2023/10/04 05:55:16;;;;;;;5.40;2.20;;;;;;;13.56;70.93;98013.80;111131;1238;94730;-80
2023/10/04 05:57:47;;;;;;;5.60;1.90;;;;;;;13.57;70.80;98016.72;110218;1239;101626;-79
2023/10/04 06:00:26;;;;;;;4.70;2.00;;;;;;;13.56;70.55;98021.02;107932;1240;100852;-81
2023/10/04 06:02:55;;;;;;;2.70;1.50;;;;;;;13.54;70.52;98027.02;107565;1245;99962;-81
2023/10/04 06:05:23;;;;;;;6.20;2.10;;;;;;;13.57;70.43;98030.27;107805;1238;96640;-81
2023/10/04 06:07:51;;;;;;;2.30;2.00;;;;;;;13.59;70.39;98036.08;107817;1237;97329;-81
2023/10/04 06:10:18;;;;;;;4.60;2.00;;;;;;;13.59;70.19;98045.77;107761;1241;103592;-80
2023/10/04 06:12:47;;;;;;;8.40;2.40;;;;;;;13.56;70.06;98052.31;107802;1239;97486;-79
2023/10/04 06:15:16;;;;;;;4.20;2.00;;;;;;;13.53;69.61;98059.80;107490;1241;100074;-80
2023/10/04 06:17:45;;;;;;;6.20;2.40;;;;;;;13.52;69.52;98064.32;107715;1238;96555;-81
2023/10/04 06:20:27;;;;;;;8.20;2.10;;;;;;;13.51;69.55;98073.80;107806;1239;97759;-77
2023/10/04 06:22:59;;;;;;;7.00;2.30;;;;;;;13.50;69.59;98075.92;107373;1242;110059;-77
2023/10/04 06:25:28;;;;;;;8.50;2.70;;;;;;;13.48;69.45;98083.06;107757;1240;100722;-77
2023/10/04 06:27:56;;;;;;;5.90;2.60;;;;;;;13.48;69.46;98088.32;107770;1249;98712;-79
2023/10/04 06:30:28;;;;;;;4.80;2.00;;;;;;;13.47;69.15;98094.84;107742;1239;96764;-78
2023/10/04 06:32:57;;;;;;;6.20;2.10;;;;;;;13.42;68.86;98098.80;107804;1239;96519;-77
2023/10/04 06:35:24;;;;;;;4.90;1.90;;;;;;;13.38;68.77;98099.12;107794;1237;102312;-77
2023/10/04 06:37:56;;;;;;;4.80;1.90;;;;;;;13.38;68.69;98097.70;107791;1239;101587;-77
2023/10/04 06:40:23;;;;;;;6.70;2.60;;;;;;;13.39;68.73;98104.23;107755;1250;98744;-77
2023/10/04 06:42:51;;;;;;;5.80;2.50;;;;;;;13.46;68.75;98111.94;107698;1241;97080;-77
2023/10/04 06:45:24;;;;;;;4.20;1.80;;;;;;;13.50;68.75;98110.10;107809;1240;96993;-77
2023/10/04 06:47:50;;;;;;;;;;;;;;;13.53;68.47;98113.29;107380;1242;100902;-77
2023/10/04 06:50:19;;;;;;;5.40;2.10;;;;;;;13.56;68.30;98115.29;107765;1248;96716;-77
2023/10/04 06:52:47;;;;;;;4.70;1.60;;;;;;;13.59;67.92;98115.95;107771;1239;98861;-77
2023/10/04 06:55:15;;;;;;;3.60;1.70;;;;;;;13.60;67.70;98116.49;107825;1245;96627;-80
2023/10/04 06:57:43;;;;;;;4.40;2.00;;;;;;;13.64;67.59;98125.27;107466;1242;98364;-80
2023/10/04 07:00:20;;;;;;;6.30;1.80;;;;;;;13.72;67.54;98129.64;107248;1246;100853;-80
2023/10/04 07:02:49;;;;;;;6.40;1.70;;;;;;;13.82;67.51;98132.24;107800;1241;101228;-81
2023/10/04 07:05:23;;;;;;;4.80;1.90;;;;;;;13.97;67.47;98137.65;107844;1250;106463;-80
2023/10/04 07:07:52;;;;;;;4.80;1.80;;;;;;;14.12;67.04;98138.54;107799;1239;97372;-80
2023/10/04 07:10:20;;;;;;;3.80;1.90;;;;;;;14.17;66.69;98141.11;107880;1250;97712;-80
2023/10/04 07:12:51;;;;;;;4.30;2.00;;;;;;;14.18;66.65;98139.09;107786;1245;102072;-79
2023/10/04 07:15:19;;;;;;;5.30;2.40;;;;;;;14.15;66.43;98138.52;107792;1236;100211;-80
2023/10/04 07:17:47;;;;;;;8.00;2.80;;;;;;;14.11;66.32;98142.60;107732;1240;99992;-80
2023/10/04 07:20:15;;;;;;;4.40;1.80;;;;;;;14.10;66.26;98144.95;107746;1238;96572;-80
2023/10/04 07:22:58;;;;;;;8.40;2.20;;;;;;;14.09;66.15;98145.66;107886;1244;97010;-79
2023/10/04 07:25:26;;;;;;;3.80;1.90;;;;;;;14.10;66.17;98148.04;107752;1249;102317;-80
2023/10/04 07:27:54;;;;;;;7.20;2.80;;;;;;;14.10;65.93;98142.28;107823;1238;101007;-80
2023/10/04 07:30:20;;;;;;;4.30;2.40;;;;;;;14.06;65.79;98137.48;107765;1235;100032;-81
2023/10/04 07:32:47;;;;;;;11.40;3.10;;;;;;;14.06;65.61;98143.41;107761;1240;97791;-79
2023/10/04 07:35:20;;;;;;;6.70;2.20;;;;;;;14.11;65.59;98135.00;107733;1247;97142;-83
2023/10/04 07:37:47;;;;;;;7.50;2.40;;;;;;;14.18;65.45;98132.45;107783;1240;100852;-80
2023/10/04 07:40:16;;;;;;;7.00;1.90;;;;;;;14.22;65.33;98126.60;107767;1238;97102;-78
2023/10/04 07:42:45;;;;;;;6.20;2.40;;;;;;;14.26;65.26;98127.98;107778;1245;98974;-79
2023/10/04 07:45:13;;;;;;;6.50;2.40;;;;;;;14.33;65.18;98132.54;107749;1248;97865;-83
2023/10/04 07:47:43;;;;;;;5.90;1.90;;;;;;;14.43;65.28;98129.65;107768;1247;97066;-80
2023/10/04 07:50:13;;;;;;;5.80;2.30;;;;;;;14.65;65.39;98134.33;107771;1243;102052;-81
2023/10/04 07:52:41;;;;;;;6.10;1.60;;;;;;;14.80;65.16;98138.34;107406;1237;99871;-81
2023/10/04 07:55:14;;;;;;;4.90;2.00;;;;;;;14.80;64.90;98139.13;107651;1247;99648;-78
2023/10/04 07:57:42;;;;;;;7.10;1.90;;;;;;;14.74;64.73;98143.66;107709;1250;96513;-79
2023/10/04 08:00:12;;;;;;;3.90;2.00;;;;;;;14.73;64.57;98138.33;107816;1239;97085;-80
2023/10/04 08:02:45;;;;;;;5.40;1.90;;;;;;;14.74;64.46;98136.11;107840;1239;101929;-78
2023/10/04 08:05:18;;;;;;;5.30;1.80;;;;;;;14.74;64.35;98136.48;107840;1244;101183;-81
2023/10/04 08:07:48;;;;;;;5.30;2.00;;;;;;;14.75;64.31;98131.70;107442;1242;100273;-81
2023/10/04 08:10:16;;;;;;;6.90;1.60;;;;;;;14.75;64.17;98132.08;107766;1238;96689;-78
2023/10/04 08:12:43;;;;;;;8.50;1.70;;;;;;;14.84;64.09;98134.20;107642;1249;96741;-79
2023/10/04 08:15:13;;;;;;;5.30;2.00;;;;;;;14.89;63.90;98129.86;107788;1248;97332;-79
2023/10/04 08:17:43;;;;;;;5.70;1.80;;;;;;;14.95;63.73;98131.70;107379;1235;101305;-81
2023/10/04 08:20:13;;;;;;;6.70;2.20;;;;;;;14.99;63.70;98132.03;107810;1239;99297;-79
2023/10/04 08:22:44;;;;;;;4.40;1.80;;;;;;;15.02;63.81;98132.38;107756;1250;96640;-79
2023/10/04 08:25:13;;;;;;;3.60;1.90;;;;;;;15.03;63.76;98135.22;107748;1235;96997;-79
2023/10/04 08:27:39;;;;;;;3.60;1.90;;;;;;;15.05;63.55;98139.59;107783;1240;101816;-80
2023/10/04 08:30:07;;;;;;;5.00;1.60;;;;;;;15.06;63.53;98143.56;107697;1245;97495;-79
2023/10/04 08:32:36;;;;;;;4.10;1.70;;;;;;;15.04;63.37;98144.63;107654;1239;98871;-81
2023/10/04 08:35:03;;;;;;;4.20;2.00;;;;;;;15.05;63.44;98141.06;107702;1250;96991;-81
2023/10/04 08:37:31;;;;;;;4.20;1.90;;;;;;;15.06;63.41;98146.16;107785;1239;96752;-81
2023/10/04 08:39:57;;;;;;;3.60;1.80;;;;;;;15.09;63.21;98152.95;107795;1239;97671;-80
2023/10/04 08:42:24;;;;;;;4.20;1.80;;;;;;;15.14;63.28;98150.60;107785;1239;97475;-80
2023/10/04 08:44:51;;;;;;;4.40;2.20;;;;;;;15.14;63.33;98152.90;107853;1239;97820;-81
2023/10/04 08:47:18;;;;;;;3.80;2.00;;;;;;;15.14;63.01;98151.85;107768;1241;97477;-80
2023/10/04 08:49:55;;;;;;;5.00;1.70;;;;;;;15.27;63.07;98151.95;107795;1239;97814;-80
2023/10/04 08:52:35;;;;;;;6.20;1.90;;;;;;;15.44;62.61;98151.83;107775;1240;101138;-79
2023/10/04 08:55:07;;;;;;;3.70;1.80;;;;;;;15.61;62.14;98153.69;107717;1239;98631;-79
2023/10/04 08:57:38;;;;;;;6.30;1.60;;;;;;;15.87;62.00;98153.00;107584;1241;96753;-80
2023/10/04 11:08:34;;;;;;;3.00;1.40;;;;;;;17.44;52.42;98062.39;107910;1239;98517;-81
2023/10/04 11:11:01;;;;;;;3.60;1.60;;;;;;;17.36;52.62;98061.55;107768;1240;96980;-82
2023/10/04 11:13:28;;;;;;;4.90;1.60;;;;;;;17.37;52.76;98058.42;107860;1246;96647;-81
2023/10/04 11:15:55;;;;;;;3.30;1.60;;;;;;;17.37;52.52;98062.24;107692;1244;97148;-82
2023/10/04 11:18:28;;;;;;;3.80;1.80;;;;;;;17.38;52.76;98065.71;107515;1246;97482;-83
2023/10/04 11:21:04;;;;;;;7.30;1.70;;;;;;;17.42;53.06;98063.27;107756;1241;97379;-80
2023/10/04 11:23:30;;;;;;;4.80;1.80;;;;;;;17.54;53.11;98058.13;107851;1243;97092;-84
2023/10/04 11:26:00;;;;;;;3.80;2.00;;;;;;;17.58;52.94;98063.46;107820;1249;97819;-82
2023/10/04 11:28:29;;;;;;;3.20;1.80;;;;;;;17.54;52.82;98065.68;107938;1245;101315;-79
2023/10/04 11:30:57;;;;;;;5.90;2.30;;;;;;;17.44;52.84;98060.25;107492;1245;99815;-80
2023/10/04 11:33:23;;;;;;;2.40;1.60;;;;;;;17.43;53.22;98058.38;107799;1244;97466;-79
2023/10/04 11:35:50;;;;;;;4.00;1.80;;;;;;;17.64;53.45;98062.78;107849;1249;96713;-80
2023/10/04 11:38:19;;;;;;;5.60;1.70;;;;;;;17.87;53.15;98064.25;107679;1249;96603;-80
2023/10/04 11:40:47;;;;;;;4.20;2.10;;;;;;;18.06;53.09;98066.34;107919;1241;96557;-79
2023/10/04 11:43:14;;;;;;;4.70;2.00;;;;;;;18.18;52.74;98068.17;107542;1240;97683;-79
2023/10/04 11:45:40;;;;;;;2.60;1.60;;;;;;;18.32;52.43;98064.40;107653;1247;97903;-81
2023/10/04 11:48:09;;;;;;;4.30;1.80;;;;;;;18.53;52.44;98060.40;107826;1246;96564;-82
2023/10/04 11:50:47;;;;;;;2.20;1.50;;;;;;;18.82;52.12;98056.70;108700;1238;102126;-82
2023/10/04 11:53:42;;;;;;;4.30;1.60;;;;;;;19.15;51.59;98057.79;107988;1239;101499;-81
2023/10/04 11:56:10;;;;;;;3.50;1.80;;;;;;;19.39;51.47;98051.46;109941;1239;99613;-82
2023/10/04 11:59:02;;;;;;;5.00;1.90;;;;;;;19.53;50.73;98045.40;110360;1238;96499;-82
2023/10/04 12:01:29;;;;;;;;;;;;;;;19.64;50.14;98047.58;108246;1240;96487;-82
2023/10/04 12:03:56;;;;;;;5.10;2.00;;;;;;;19.60;50.04;98044.40;108206;1239;96558;-82
2023/10/04 12:06:26;;;;;;;3.30;1.70;;;;;;;19.52;49.96;98045.11;107969;1242;98011;-79
2023/10/04 12:08:54;;;;;;;7.00;2.00;;;;;;;19.47;49.69;98044.85;108137;1238;101101;-80
2023/10/04 12:11:23;;;;;;;2.10;1.30;;;;;;;19.35;49.80;98043.48;108105;1247;97371;-80
2023/10/04 12:13:49;;;;;;;1.80;1.50;;;;;;;19.19;50.20;98048.92;107821;1249;97126;-80
2023/10/04 12:16:17;;;;;;;2.50;1.60;;;;;;;18.97;50.66;98049.36;108129;1238;96588;-79
2023/10/04 12:18:43;;;;;;;2.40;1.60;;;;;;;18.88;50.63;98050.20;108055;1238;96922;-81
2023/10/04 12:21:12;;;;;;;2.10;1.50;;;;;;;18.92;50.58;98051.95;107790;1243;96653;-81
2023/10/04 12:23:39;;;;;;;2.20;1.60;;;;;;;18.98;49.90;98050.13;107436;1244;97693;-82
2023/10/04 12:26:06;;;;;;;3.20;1.60;;;;;;;18.92;49.48;98049.45;107653;1241;96542;-84
2023/10/04 12:28:32;;;;;;;3.10;1.60;;;;;;;18.78;49.31;98051.67;107869;1241;97511;-82
2023/10/04 12:31:07;;;;;;;2.40;1.30;;;;;;;18.70;49.18;98050.58;107875;1249;96583;-81
2023/10/04 12:33:34;;;;;;;4.60;1.50;;;;;;;18.71;49.17;98051.55;107634;1238;99544;-82
2023/10/04 12:36:01;;;;;;;2.90;1.70;;;;;;;18.76;49.28;98051.95;107974;1247;97460;-83
2023/10/04 12:38:29;;;;;;;3.60;1.90;;;;;;;18.77;49.17;98054.71;107974;1248;96629;-83
2023/10/04 12:40:55;;;;;;;2.30;1.40;;;;;;;18.75;49.08;98055.01;107946;1241;96623;-85
2023/10/04 12:43:21;;;;;;;5.40;2.10;;;;;;;18.73;48.95;98055.30;107849;1246;98463;-82
2023/10/04 12:45:53;;;;;;;4.00;1.90;;;;;;;18.68;48.60;98054.89;108009;1246;96547;-82
2023/10/04 12:48:20;;;;;;;2.90;1.80;;;;;;;18.68;48.60;98056.33;107946;1241;96773;-82
2023/10/04 12:50:47;;;;;;;5.00;1.80;;;;;;;18.72;48.87;98059.49;107953;1246;96556;-82
2023/10/04 12:53:14;;;;;;;3.70;1.50;;;;;;;18.71;48.71;98061.23;107985;1238;97118;-82
2023/10/04 12:55:45;;;;;;;3.20;1.50;;;;;;;18.62;48.27;98062.33;107977;1246;96636;-82
2023/10/04 12:58:11;;;;;;;7.20;2.20;;;;;;;18.52;48.30;98056.28;107712;1235;96777;-82
2023/10/04 13:00:38;;;;;;;3.90;1.80;;;;;;;18.38;48.46;98056.52;107975;1239;96588;-81
2023/10/04 13:03:04;;;;;;;4.00;1.80;;;;;;;18.34;48.68;98059.20;107841;1249;97475;-81
2023/10/04 13:05:31;;;;;;;4.10;1.60;;;;;;;18.32;48.90;98060.23;108002;1238;96771;-82
2023/10/04 13:07:58;;;;;;;5.00;1.90;;;;;;;18.32;48.88;98059.11;107977;1247;97260;-80
2023/10/04 13:10:24;;;;;;;6.10;1.50;;;;;;;18.26;48.88;98063.14;107991;1245;97035;-81
2023/10/04 13:12:50;;;;;;;2.30;1.50;;;;;;;18.10;48.80;98061.40;107998;1240;97458;-80
2023/10/04 13:15:17;;;;;;;2.80;1.80;;;;;;;18.07;49.07;98062.27;108039;1247;96647;-83
2023/10/04 13:17:43;;;;;;;2.80;1.80;;;;;;;18.07;49.00;98055.84;108037;1241;97461;-82
2023/10/04 13:20:17;;;;;;;6.90;2.50;;;;;;;18.10;49.26;98057.47;107991;1238;97082;-81
2023/10/04 13:22:44;;;;;;;4.60;2.00;;;;;;;18.12;49.28;98054.48;107978;1238;102336;-81
2023/10/04 13:25:11;;;;;;;4.10;2.00;;;;;;;18.13;49.91;98050.63;107987;1249;100004;-81
2023/10/04 13:27:37;;;;;;;5.40;2.20;;;;;;;18.09;49.56;98041.77;108029;1241;96797;-81
2023/10/04 13:30:06;;;;;;;3.60;2.20;;;;;;;18.04;49.68;98040.02;108002;1247;96560;-80
2023/10/04 13:32:34;;;;;;;4.90;1.60;;;;;;;17.98;49.46;98036.33;109388;1238;96603;-80
2023/10/04 13:35:01;;;;;;;2.40;1.60;;;;;;;17.93;49.78;98030.96;108425;1239;97791;-81
2023/10/04 13:37:28;;;;;;;3.20;1.60;;;;;;;17.89;49.74;98031.59;108312;1238;96636;-83
2023/10/04 13:39:55;;;;;;;3.10;1.90;;;;;;;17.88;49.96;98030.47;108100;1238;96673;-83
2023/10/04 13:42:22;;;;;;;5.70;2.40;;;;;;;17.86;50.34;98033.18;108092;1238;96494;-83